Sugarloaf, Pennsylvania
Current Conditions -  °F | °C
As of 10:35 AM on Thursday 25 Dec 2014 (Local Time) from KHZL Reporting Station
Overcast Overcast  
Wind Chill: 36°   Ceiling: 3100
Heat Index: 41°   Visibility: 10mi
Dew Point: 32°   Wind: 8mph
Humidity: 70%   Direction: 260°W
Pressure: 29.8"   Gusts: 22mph
Location:  40.99°N, 76.07°W
Report Text: KHZL 251535Z AUTO 26007G19KT 10SM BKN031 OVC055 05/00 A2980 RMK AO2
Loading
Personal Weather Stations






























Interactive Weather Map New forecast layout! Learn more

10-Day Weather Forecast

Advertisements
Track Severe Weather on mobile